Time;durP1;ratioP1;P1;durP2;ratioP2;P2;SDS_P1;SDS_P2;PMS_P1;PMS_P2;Temp;Humidity;BMP_temperature;BMP_pressure;BME280_temperature;BME280_humidity;BME280_pressure;Samples;Min_cycle;Max_cycle;Signal;HPM_P1;HPM_P2
2023/07/22 00:00:34;;;;;;;15.00;10.30;;;;;;;-143.84;100.00;44365.53;4972570;28;20841;-54
2023/07/22 00:03:01;;;;;;;20.23;10.90;;;;;;;-143.84;100.00;44456.94;4973147;28;20507;-54
2023/07/22 00:05:28;;;;;;;11.87;9.00;;;;;;;-143.84;100.00;44470.25;4973350;28;20442;-54
2023/07/22 00:07:55;;;;;;;13.17;11.40;;;;;;;-143.84;100.00;44514.03;4972916;28;20447;-54
2023/07/22 00:10:24;;;;;;;19.90;10.93;;;;;;;-143.84;100.00;44479.78;4972990;28;21010;-54
2023/07/22 00:12:51;;;;;;;14.47;10.77;;;;;;;-143.84;100.00;44468.34;4971309;28;20943;-54
2023/07/22 00:15:20;;;;;;;13.47;10.67;;;;;;;-143.84;100.00;44390.28;4972761;28;20488;-54
2023/07/22 00:17:47;;;;;;;12.33;10.93;;;;;;;-143.84;100.00;44316.03;4973125;28;20455;-54
2023/07/22 00:20:15;;;;;;;20.27;11.10;;;;;;;-143.84;100.00;44257.03;4972952;28;20475;-54
2023/07/22 00:22:42;;;;;;;16.80;12.13;;;;;;;-143.84;100.00;44232.28;4972765;28;20447;-54
2023/07/22 00:25:12;;;;;;;13.57;10.50;;;;;;;-143.84;100.00;44226.56;4972826;28;20440;-54
2023/07/22 00:27:43;;;;;;;20.90;11.57;;;;;;;-143.84;100.00;44266.53;4970795;28;20445;-54
2023/07/22 00:30:11;;;;;;;20.23;11.27;;;;;;;-143.84;100.00;44251.31;4972644;28;20463;-54
2023/07/22 00:32:39;;;;;;;18.83;11.83;;;;;;;-143.84;100.00;44243.69;4972688;28;20453;-54
2023/07/22 00:35:07;;;;;;;18.37;11.73;;;;;;;-143.84;100.00;44135.19;4972397;28;20554;-54
2023/07/22 00:37:35;;;;;;;12.07;10.70;;;;;;;-143.84;100.00;44158.03;4972378;28;20453;-54
2023/07/22 00:40:05;;;;;;;15.60;11.73;;;;;;;-143.84;100.00;44137.09;4972464;28;20441;-54
2023/07/22 00:42:33;;;;;;;15.63;12.47;;;;;;;-143.84;100.00;44059.03;4971129;28;20519;-54
2023/07/22 00:45:01;;;;;;;16.70;11.57;;;;;;;-143.84;100.00;44057.16;4972286;28;20453;-54
2023/07/22 00:47:28;;;;;;;20.40;13.07;;;;;;;-143.84;100.00;44032.41;4972116;28;20453;-54
2023/07/22 00:49:56;;;;;;;15.57;11.30;;;;;;;-143.84;100.00;44045.72;4972421;28;20447;-54
2023/07/22 00:52:23;;;;;;;14.67;10.63;;;;;;;-143.84;100.00;44080.00;4972465;28;20460;-54
2023/07/22 00:54:50;;;;;;;24.27;12.70;;;;;;;-143.84;100.00;44095.22;4972062;28;20489;-55
2023/07/22 00:57:18;;;;;;;19.00;11.97;;;;;;;-143.84;100.00;44121.88;4971342;28;20445;-54
2023/07/22 00:59:46;;;;;;;13.17;11.67;;;;;;;-143.84;100.00;44089.50;4972245;28;20446;-54
2023/07/22 01:02:14;;;;;;;17.17;11.90;;;;;;;-143.84;100.00;44114.25;4971922;28;20448;-54
2023/07/22 01:04:42;;;;;;;29.63;12.73;;;;;;;-143.84;100.00;44062.84;4970939;28;20480;-54
2023/07/22 01:07:10;;;;;;;18.60;12.40;;;;;;;-143.84;100.00;44026.69;4971980;28;20469;-54
2023/07/22 01:09:37;;;;;;;18.33;12.43;;;;;;;-143.84;100.00;43990.53;4971915;28;20539;-54
2023/07/22 01:12:06;;;;;;;18.30;12.77;;;;;;;-143.84;100.00;43933.41;4971050;28;20856;-54
2023/07/22 01:14:35;;;;;;;12.73;11.57;;;;;;;-143.84;100.00;43870.59;4971904;28;20485;-54
2023/07/22 01:17:03;;;;;;;17.47;12.43;;;;;;;-143.84;100.00;43851.56;4971787;28;20441;-54
2023/07/22 01:19:33;;;;;;;15.97;12.70;;;;;;;-143.84;100.00;43866.78;4971663;28;20451;-54
2023/07/22 01:22:01;;;;;;;17.03;12.93;;;;;;;-143.84;100.00;43864.88;4971561;28;20502;-54
2023/07/22 01:24:30;;;;;;;31.73;13.87;;;;;;;-143.84;100.00;43817.31;4971258;28;20448;-54
2023/07/22 01:26:57;;;;;;;17.93;14.57;;;;;;;-143.84;100.00;43792.56;4970710;28;20508;-54
2023/07/22 01:29:24;;;;;;;16.73;12.80;;;;;;;-143.84;100.00;43792.56;4971260;28;20547;-54
2023/07/22 01:31:54;;;;;;;20.33;11.90;;;;;;;-143.84;100.00;43796.34;4971456;28;20440;-54
2023/07/22 01:34:22;;;;;;;19.07;13.90;;;;;;;-143.84;100.00;43813.50;4971252;28;20484;-54
2023/07/22 01:36:50;;;;;;;15.47;13.90;;;;;;;-143.84;100.00;43800.16;4971252;28;20452;-54
2023/07/22 01:39:19;;;;;;;20.47;13.83;;;;;;;-143.84;100.00;43777.31;4971061;28;20863;-54
2023/07/22 01:41:47;;;;;;;20.30;14.50;;;;;;;-143.84;100.00;43783.03;4970343;28;20488;-54
2023/07/22 01:44:15;;;;;;;25.30;14.87;;;;;;;-143.84;100.00;43819.19;4970566;28;20457;-54
2023/07/22 01:46:42;;;;;;;17.60;13.53;;;;;;;-143.84;100.00;43823.00;4971019;28;20548;-54
2023/07/22 01:49:13;;;;;;;27.70;15.23;;;;;;;-143.84;100.00;43807.78;4971020;28;20503;-54
2023/07/22 01:51:41;;;;;;;26.10;16.27;;;;;;;-143.84;100.00;43859.19;4971173;28;20958;-54
2023/07/22 01:54:08;;;;;;;35.90;16.20;;;;;;;-143.84;100.00;43826.81;4970979;28;20536;-54
2023/07/22 01:56:36;;;;;;;24.33;15.27;;;;;;;-143.84;100.00;43859.19;4969359;28;20459;-54
2023/07/22 01:59:05;;;;;;;30.47;15.90;;;;;;;-143.84;100.00;43851.56;4971179;28;20468;-54
2023/07/22 02:01:32;;;;;;;26.93;15.30;;;;;;;-143.84;100.00;43872.50;4970827;28;20449;-54
2023/07/22 02:03:59;;;;;;;28.30;16.37;;;;;;;-143.84;100.00;43862.97;4970695;28;20503;-54
2023/07/22 02:06:28;;;;;;;26.70;16.20;;;;;;;-143.84;100.00;43897.25;4970809;28;20519;-54
2023/07/22 02:08:55;;;;;;;29.13;15.90;;;;;;;-143.84;100.00;43866.78;4970574;28;20955;-54
2023/07/22 02:11:23;;;;;;;27.40;15.80;;;;;;;-143.84;100.00;43891.53;4970660;28;20448;-54
2023/07/22 02:13:50;;;;;;;21.97;15.60;;;;;;;-143.84;100.00;43882.00;4969446;28;20455;-54
2023/07/22 02:16:18;;;;;;;26.60;15.20;;;;;;;-143.84;100.00;43861.06;4970352;28;20543;-54
2023/07/22 02:18:45;;;;;;;32.50;14.93;;;;;;;-143.84;100.00;43883.91;4970645;28;21015;-54
2023/07/22 02:21:13;;;;;;;24.50;15.17;;;;;;;-143.84;100.00;43897.25;4970368;28;20550;-54
2023/07/22 02:23:40;;;;;;;21.67;14.87;;;;;;;-143.84;100.00;43891.53;4970317;28;20816;-54
2023/07/22 02:26:07;;;;;;;22.70;16.57;;;;;;;-143.84;100.00;43899.16;4970608;28;20522;-54
2023/07/22 02:28:34;;;;;;;22.00;15.73;;;;;;;-143.84;100.00;43889.63;4969148;28;20448;-54
2023/07/22 02:31:05;;;;;;;25.77;15.00;;;;;;;-143.84;100.00;43883.91;4970592;28;20942;-54
2023/07/22 02:33:34;;;;;;;30.03;15.80;;;;;;;-143.84;100.00;43891.53;4969575;28;20444;-54
2023/07/22 02:36:01;;;;;;;23.20;15.40;;;;;;;-143.84;100.00;43889.63;4969416;28;20551;-54
2023/07/22 02:38:28;;;;;;;22.37;15.90;;;;;;;-143.84;100.00;43889.63;4969507;28;20449;-54
2023/07/22 02:40:55;;;;;;;22.90;15.60;;;;;;;-143.84;100.00;43897.25;4969662;28;20963;-54
2023/07/22 02:43:22;;;;;;;23.00;15.00;;;;;;;-143.84;100.00;43912.47;4968667;28;20487;-54
2023/07/22 02:45:49;;;;;;;24.60;16.07;;;;;;;-143.84;100.00;43895.34;4970220;28;20500;-54
2023/07/22 02:48:16;;;;;;;25.60;15.90;;;;;;;-143.84;100.00;43920.09;4970219;28;20453;-54
2023/07/22 02:50:45;;;;;;;23.77;15.57;;;;;;;-143.84;100.00;43891.53;4970355;28;20510;-54
2023/07/22 02:53:12;;;;;;;23.50;14.90;;;;;;;-143.84;100.00;43889.63;4969109;28;20955;-54
2023/07/22 02:55:40;;;;;;;20.80;15.77;;;;;;;-143.84;100.00;43895.34;4966068;28;20495;-54
2023/07/22 02:58:07;;;;;;;19.73;14.27;;;;;;;-143.84;100.00;43916.28;4969060;28;20508;-56
2023/07/22 03:00:34;;;;;;;24.87;14.63;;;;;;;-143.84;100.00;43902.97;4969489;28;20463;-56
2023/07/22 03:03:01;;;;;;;22.57;14.63;;;;;;;-143.84;100.00;43935.31;4969639;28;20461;-56
2023/07/22 03:05:29;;;;;;;25.10;15.10;;;;;;;-143.84;100.00;43908.66;4969996;28;20997;-56
2023/07/22 03:07:58;;;;;;;23.70;13.80;;;;;;;-143.84;100.00;43931.50;4970194;28;20537;-56
2023/07/22 03:10:28;;;;;;;22.53;15.90;;;;;;;-143.84;100.00;43929.59;4970207;28;20440;-56
2023/07/22 03:12:56;;;;;;;19.77;15.30;;;;;;;-143.84;100.00;43933.41;4969976;28;20476;-56
2023/07/22 03:15:25;;;;;;;25.53;14.90;;;;;;;-143.84;100.00;43916.28;4969961;28;20488;-55
2023/07/22 03:17:53;;;;;;;26.60;14.47;;;;;;;-143.84;100.00;43925.78;4970124;28;20467;-56
2023/07/22 03:20:21;;;;;;;21.10;14.90;;;;;;;-143.84;100.00;43920.09;4969916;28;20449;-56
2023/07/22 03:22:48;;;;;;;21.67;15.20;;;;;;;-143.84;100.00;43922.00;4969975;28;20496;-55
2023/07/22 03:25:17;;;;;;;20.03;13.93;;;;;;;-143.84;100.00;43906.75;4970122;28;21031;-55
2023/07/22 03:27:45;;;;;;;33.73;15.20;;;;;;;-143.84;100.00;43887.72;4971768;28;20879;-56
2023/07/22 03:30:15;;;;;;;24.43;15.50;;;;;;;-143.84;100.00;43883.91;4973587;28;20452;-56
2023/07/22 03:32:43;;;;;;;18.20;13.30;;;;;;;-143.84;100.00;43866.78;4973569;28;20441;-56
2023/07/22 03:35:11;;;;;;;20.87;13.30;;;;;;;-143.84;100.00;43864.88;4973295;28;20853;-56
2023/07/22 03:37:38;;;;;;;15.63;12.03;;;;;;;-143.84;100.00;43876.31;4973516;28;20457;-56
2023/07/22 03:40:10;;;;;;;23.70;13.77;;;;;;;-143.84;100.00;43845.84;4973637;28;20926;-56
2023/07/22 03:42:39;;;;;;;21.50;13.13;;;;;;;-143.84;100.00;43864.88;4973447;28;20931;-57
2023/07/22 03:45:08;;;;;;;17.70;11.87;;;;;;;-143.84;100.00;43864.88;4973456;28;20955;-56
2023/07/22 03:47:35;;;;;;;17.47;12.33;;;;;;;-143.84;100.00;43779.22;4973226;28;20812;-56
2023/07/22 03:50:02;;;;;;;20.50;12.00;;;;;;;-143.84;100.00;43998.13;4973109;28;20846;-56
2023/07/22 03:52:29;;;;;;;15.80;9.93;;;;;;;-143.84;100.00;44550.22;4973510;28;20531;-56
2023/07/22 03:54:56;;;;;;;14.13;10.03;;;;;;;-143.84;96.56;44921.50;4973362;28;20945;-56
2023/07/22 03:57:27;;;;;;;17.47;9.83;;;;;;;-143.84;95.23;44961.47;4973180;28;20442;-56
2023/07/22 03:59:56;;;;;;;23.63;9.70;;;;;;;-143.84;92.34;44999.56;4973113;28;20452;-56
2023/07/22 04:02:23;;;;;;;11.70;9.40;;;;;;;-143.84;92.34;45024.31;4972997;28;20504;-56
2023/07/22 04:04:51;;;;;;;10.37;9.40;;;;;;;-143.84;92.25;45010.97;4973099;28;20924;-56
2023/07/22 04:07:18;;;;;;;11.43;8.80;;;;;;;-143.84;92.67;45035.75;4973069;28;20447;-56
2023/07/22 04:09:46;;;;;;;15.67;8.47;;;;;;;-143.84;93.65;45003.38;4973010;28;20450;-56
2023/07/22 04:12:13;;;;;;;10.90;8.83;;;;;;;-143.84;93.05;45037.66;4973010;28;20529;-56
2023/07/22 04:14:40;;;;;;;13.53;8.60;;;;;;;-143.84;93.65;45007.19;4972691;28;20500;-56
2023/07/22 04:17:09;;;;;;;12.80;9.07;;;;;;;-143.84;93.66;45012.88;4972697;28;21054;-56
2023/07/22 04:19:36;;;;;;;9.10;7.70;;;;;;;-143.84;93.43;45003.38;4972588;28;20880;-56
2023/07/22 04:22:04;;;;;;;8.87;7.97;;;;;;;-143.84;93.99;44995.75;4972833;28;20454;-55
2023/07/22 04:24:32;;;;;;;15.80;9.00;;;;;;;-143.84;94.79;44999.56;4972463;28;20438;-55
2023/07/22 04:26:59;;;;;;;13.20;8.47;;;;;;;-143.84;94.59;45026.22;4972632;28;20465;-55
2023/07/22 04:29:26;;;;;;;12.03;9.30;;;;;;;-143.84;95.04;44988.13;4972624;28;20450;-56
2023/07/22 04:31:59;;;;;;;16.50;8.47;;;;;;;-143.84;94.70;44999.56;4972521;28;20761;-56
2023/07/22 04:34:30;;;;;;;10.33;8.57;;;;;;;-143.84;95.40;44997.66;4972353;28;20448;-56
2023/07/22 04:36:57;;;;;;;15.37;8.70;;;;;;;-143.84;95.78;44980.53;4972415;28;20492;-55
2023/07/22 04:39:25;;;;;;;12.60;8.67;;;;;;;-143.84;96.47;44972.91;4972454;28;20524;-56
2023/07/22 04:41:52;;;;;;;15.63;8.70;;;;;;;-143.84;96.96;44976.72;4972239;28;20495;-56
2023/07/22 04:44:20;;;;;;;17.37;8.80;;;;;;;-143.84;97.74;44963.38;4972379;28;20473;-56
2023/07/22 04:46:47;;;;;;;16.83;8.10;;;;;;;-143.84;97.87;44971.00;4972594;28;20445;-56
2023/07/22 04:49:17;;;;;;;16.47;9.30;;;;;;;-143.84;97.29;44953.88;4972255;28;20442;-56
2023/07/22 04:51:46;;;;;;;16.00;9.13;;;;;;;-143.84;98.01;44959.56;4972181;28;20470;-56
2023/07/22 04:54:13;;;;;;;15.67;7.90;;;;;;;-143.84;97.71;44950.06;4972076;28;20457;-55
2023/07/22 04:56:40;;;;;;;9.33;7.50;;;;;;;-143.84;97.45;44953.88;4971936;28;20532;-56
2023/07/22 04:59:08;;;;;;;9.40;8.40;;;;;;;-143.84;96.67;44971.00;4972016;28;20450;-56
2023/07/22 05:01:36;;;;;;;13.83;8.40;;;;;;;-143.84;96.11;44997.66;4972070;28;20449;-56
2023/07/22 05:04:04;;;;;;;12.17;7.93;;;;;;;-143.84;95.50;44997.66;4972118;28;20845;-56
2023/07/22 05:06:31;;;;;;;13.97;7.97;;;;;;;-143.84;96.00;44999.56;4971808;28;20452;-56
2023/07/22 05:09:00;;;;;;;11.50;8.87;;;;;;;-143.84;96.03;44976.72;4971879;28;20844;-56
2023/07/22 05:11:27;;;;;;;11.23;7.90;;;;;;;-143.84;95.25;44986.22;4971824;28;20889;-56
2023/07/22 05:13:54;;;;;;;11.77;7.40;;;;;;;-143.84;95.22;44997.66;4971850;28;20442;-56
2023/07/22 05:16:21;;;;;;;9.63;7.40;;;;;;;-143.84;94.06;44999.56;4971388;28;20481;-56
2023/07/22 05:18:49;;;;;;;10.30;7.23;;;;;;;-143.84;94.12;44999.56;4971736;28;20457;-56
2023/07/22 05:21:16;;;;;;;8.77;7.40;;;;;;;-143.84;91.97;45022.41;4971686;28;20446;-56
2023/07/22 05:23:43;;;;;;;13.83;7.47;;;;;;;-143.84;90.87;45026.22;4971502;28;20442;-56
2023/07/22 05:26:11;;;;;;;9.63;7.37;;;;;;;-143.84;89.33;45005.28;4971629;28;20445;-56
2023/07/22 05:28:38;;;;;;;10.63;7.03;;;;;;;-143.84;88.03;45026.22;4971479;28;20491;-56
2023/07/22 05:31:06;;;;;;;9.67;6.10;;;;;;;-143.84;86.79;44995.75;4971554;28;20446;-55
2023/07/22 05:33:33;;;;;;;7.83;5.90;;;;;;;-143.84;85.42;45010.97;4971722;28;20478;-56
2023/07/22 05:36:00;;;;;;;8.63;5.87;;;;;;;-143.84;83.66;45030.03;4971630;28;20489;-55
2023/07/22 05:38:27;;;;;;;7.30;6.50;;;;;;;-143.84;83.18;45018.59;4971449;28;20453;-56
2023/07/22 05:40:55;;;;;;;10.30;5.93;;;;;;;-143.84;82.21;45014.78;4971471;28;20540;-56
2023/07/22 05:43:23;;;;;;;12.10;6.40;;;;;;;-143.84;82.15;45018.59;4971176;28;20485;-56
2023/07/22 05:45:51;;;;;;;16.10;6.30;;;;;;;-143.84;82.64;45005.28;4970990;28;20453;-55
2023/07/22 05:48:18;;;;;;;14.80;6.40;;;;;;;-143.84;81.83;44999.56;4971290;28;20452;-56
2023/07/22 05:50:45;;;;;;;14.53;6.50;;;;;;;-143.84;81.07;44999.56;4970685;28;20468;-56
2023/07/22 05:53:13;;;;;;;6.43;5.67;;;;;;;-143.84;78.73;45007.19;4971018;28;20442;-55
2023/07/22 05:55:40;;;;;;;7.83;6.07;;;;;;;-143.84;78.13;44995.75;4970910;28;21016;-55
2023/07/22 05:58:08;;;;;;;7.53;5.87;;;;;;;-143.84;77.13;45005.28;4970951;28;20465;-56
2023/07/22 06:00:37;;;;;;;13.40;5.77;;;;;;;-143.84;77.77;44972.91;4970816;28;21148;-55
2023/07/22 06:03:04;;;;;;;8.50;6.00;;;;;;;-143.84;77.31;44986.22;4970805;28;20513;-55
2023/07/22 06:05:31;;;;;;;10.33;6.17;;;;;;;-143.84;75.60;44999.56;4970492;28;20445;-56
2023/07/22 06:07:59;;;;;;;9.40;5.40;;;;;;;-143.84;76.38;44984.31;4969358;28;20536;-55
2023/07/22 06:10:26;;;;;;;21.93;6.83;;;;;;;-143.84;74.39;44978.63;4970717;28;20508;-55
2023/07/22 06:12:53;;;;;;;9.53;6.00;;;;;;;-143.84;73.87;45007.19;4970706;28;20457;-55
2023/07/22 06:15:20;;;;;;;10.20;6.27;;;;;;;-143.84;74.75;44988.13;4970597;28;20477;-55
2023/07/22 06:17:49;;;;;;;10.83;5.50;;;;;;;-143.84;73.91;45010.97;4970522;28;20497;-55
2023/07/22 06:20:16;;;;;;;6.40;5.77;;;;;;;-143.84;72.23;44965.28;4970566;28;20458;-55
2023/07/22 06:22:43;;;;;;;12.43;5.70;;;;;;;-143.84;72.36;44982.41;4970422;28;20443;-55
2023/07/22 06:25:10;;;;;;;8.10;5.33;;;;;;;-143.84;73.45;44995.75;4970579;28;20866;-55
2023/07/22 06:27:37;;;;;;;6.27;5.67;;;;;;;-143.84;73.14;44972.91;4970705;28;20446;-55
2023/07/22 06:30:06;;;;;;;6.13;4.70;;;;;;;-143.84;71.73;45003.38;4970259;28;20528;-55
2023/07/22 06:32:33;;;;;;;8.80;6.03;;;;;;;-143.84;73.89;44986.22;4970468;28;20446;-55
2023/07/22 06:35:02;;;;;;;6.80;5.93;;;;;;;-143.84;73.08;44980.53;4967818;28;20462;-55
2023/07/22 06:37:30;;;;;;;7.47;6.10;;;;;;;-143.84;74.46;44995.75;4970425;28;20501;-55
2023/07/22 06:39:57;;;;;;;8.17;6.43;;;;;;;-143.84;73.98;45012.88;4970185;28;20501;-55
2023/07/22 06:42:24;;;;;;;6.10;5.50;;;;;;;-143.84;74.73;44993.84;4969852;28;21018;-55
2023/07/22 06:44:51;;;;;;;10.73;5.50;;;;;;;-143.84;73.08;45020.50;4970077;28;20585;-55
2023/07/22 06:47:18;;;;;;;6.17;5.67;;;;;;;-143.84;72.49;44997.66;4970309;28;20441;-55
2023/07/22 06:49:45;;;;;;;8.07;6.63;;;;;;;-143.84;72.36;44971.00;4970410;28;20872;-55
2023/07/22 06:52:14;;;;;;;12.40;10.57;;;;;;;-143.84;73.94;44972.91;4970091;28;20478;-55
2023/07/22 06:54:42;;;;;;;16.80;6.00;;;;;;;-143.84;72.23;44990.03;4970208;28;20528;-55
2023/07/22 06:57:09;;;;;;;6.83;5.67;;;;;;;-143.84;69.73;44991.94;4969459;28;20497;-55
2023/07/22 06:59:36;;;;;;;11.23;6.73;;;;;;;-143.84;70.48;44961.47;4969788;28;20928;-55
2023/07/22 07:02:05;;;;;;;6.47;5.60;;;;;;;-143.84;70.97;44950.06;4970877;28;20976;-55
2023/07/22 07:04:33;;;;;;;9.70;6.10;;;;;;;-143.84;69.15;44984.31;4974298;28;20880;-55
2023/07/22 07:07:00;;;;;;;7.97;5.97;;;;;;;-143.84;68.04;44978.63;4974374;28;20521;-55
2023/07/22 07:09:29;;;;;;;13.40;5.40;;;;;;;-143.84;67.63;44972.91;4974263;28;20441;-55
2023/07/22 07:11:56;;;;;;;10.17;5.30;;;;;;;-143.84;67.76;44955.75;4973053;28;20473;-55
2023/07/22 07:14:24;;;;;;;6.30;5.70;;;;;;;-143.84;68.91;44984.31;4973004;28;20845;-55
2023/07/22 07:16:51;;;;;;;4.90;4.50;;;;;;;-143.84;67.84;44982.41;4973445;28;20487;-55
2023/07/22 07:19:18;;;;;;;9.47;5.80;;;;;;;-143.84;68.58;44953.88;4973102;28;20972;-55
2023/07/22 07:21:45;;;;;;;6.47;5.97;;;;;;;-143.84;67.06;44976.72;4973142;28;20508;-55
2023/07/22 07:24:13;;;;;;;14.07;6.30;;;;;;;-143.84;66.25;44986.22;4973321;28;20438;-55
2023/07/22 07:26:41;;;;;;;6.87;5.47;;;;;;;-143.84;67.30;44972.91;4973518;28;20453;-55
2023/07/22 07:29:09;;;;;;;7.23;5.80;;;;;;;-143.84;67.73;44965.28;4973226;28;20548;-55
2023/07/22 07:31:36;;;;;;;8.43;5.70;;;;;;;-143.84;68.37;44950.06;4973822;28;20446;-55
2023/07/22 07:34:03;;;;;;;8.73;6.20;;;;;;;-143.84;68.60;44965.28;4973564;28;20445;-55
2023/07/22 07:36:30;;;;;;;8.70;6.03;;;;;;;-143.84;67.10;44953.88;4973668;28;20489;-55
2023/07/22 07:38:57;;;;;;;11.70;6.33;;;;;;;-143.84;67.31;44957.66;4973301;28;21022;-55
2023/07/22 07:41:25;;;;;;;7.90;5.87;;;;;;;-143.84;66.34;44938.63;4973040;28;20833;-55
2023/07/22 07:43:53;;;;;;;7.43;5.80;;;;;;;-143.84;69.87;44959.56;4973308;28;20465;-55
2023/07/22 07:46:22;;;;;;;8.03;5.77;;;;;;;-143.84;67.23;44951.97;4973459;28;20463;-55
2023/07/22 07:48:50;;;;;;;11.90;6.10;;;;;;;-143.84;68.61;44969.09;4973403;28;20445;-55
2023/07/22 07:51:18;;;;;;;7.13;6.43;;;;;;;-143.84;68.66;44965.28;4973264;28;20434;-55
2023/07/22 07:53:46;;;;;;;5.23;4.83;;;;;;;-143.84;70.99;44961.47;4973186;28;20438;-55
2023/07/22 07:56:14;;;;;;;6.87;5.70;;;;;;;-143.84;71.30;44963.38;4973133;28;20453;-55
2023/07/22 07:58:41;;;;;;;8.03;5.90;;;;;;;-143.84;70.71;44934.81;4973071;28;20975;-55
2023/07/22 08:01:10;;;;;;;8.80;6.10;;;;;;;-143.84;71.65;44953.88;4973050;28;20504;-55
2023/07/22 08:03:39;;;;;;;6.87;5.27;;;;;;;-143.84;69.51;44978.63;4973089;28;20936;-55
2023/07/22 08:06:06;;;;;;;6.37;4.73;;;;;;;-143.84;70.18;44955.75;4973054;28;20807;-55
2023/07/22 08:08:34;;;;;;;9.80;5.10;;;;;;;-143.84;69.42;44927.19;4972754;28;20528;-55
2023/07/22 08:11:02;;;;;;;14.73;5.33;;;;;;;-143.84;70.66;44965.28;4972666;28;20454;-55
2023/07/22 08:13:31;;;;;;;9.27;5.20;;;;;;;-143.84;68.71;44976.72;4972239;28;20500;-55
2023/07/22 08:15:58;;;;;;;6.77;5.17;;;;;;;-143.84;72.39;44951.97;4973010;28;20541;-55
2023/07/22 08:18:27;;;;;;;7.73;5.50;;;;;;;-143.84;74.50;44963.38;4972576;28;20905;-55
2023/07/22 08:20:54;;;;;;;6.57;4.70;;;;;;;-143.84;75.32;44997.66;4972656;28;20468;-55
2023/07/22 08:23:22;;;;;;;5.70;5.00;;;;;;;-143.84;74.60;44940.53;4972775;28;20450;-55
2023/07/22 08:25:49;;;;;;;7.93;4.73;;;;;;;-143.84;74.65;44974.81;4972290;28;20450;-55
2023/07/22 08:28:16;;;;;;;9.53;5.20;;;;;;;-143.84;75.19;44991.94;4972682;28;20626;-55
2023/07/22 08:30:44;;;;;;;5.50;5.00;;;;;;;-143.84;76.41;44953.88;4972492;28;20454;-55
2023/07/22 08:33:12;;;;;;;6.50;5.13;;;;;;;-143.84;74.84;44971.00;4972498;28;20529;-55
2023/07/22 08:35:41;;;;;;;7.90;5.33;;;;;;;-143.84;74.97;44940.53;4972383;28;20434;-55
2023/07/22 08:38:09;;;;;;;8.90;6.17;;;;;;;-143.84;73.23;44959.56;4972643;28;20560;-55
2023/07/22 08:40:37;;;;;;;6.07;5.00;;;;;;;-143.84;72.50;44951.97;4971984;28;20456;-55
2023/07/22 08:43:05;;;;;;;10.50;4.70;;;;;;;-143.84;72.57;44959.56;4972065;28;20532;-55
2023/07/22 08:45:36;;;;;;;5.03;4.53;;;;;;;-143.84;71.30;44959.56;4972136;28;20501;-55
2023/07/22 08:48:07;;;;;;;4.97;4.57;;;;;;;-143.84;71.36;44961.47;4972262;28;20466;-55
2023/07/22 08:50:42;;;;;;;5.47;4.90;;;;;;;-143.84;70.85;44969.09;4972156;28;21012;-55
2023/07/22 08:53:11;;;;;;;10.80;5.33;;;;;;;-143.84;71.46;44911.97;4971978;28;20445;-55
2023/07/22 08:55:40;;;;;;;15.97;5.27;;;;;;;-143.84;69.98;44923.41;4972129;28;20445;-55
2023/07/22 08:58:09;;;;;;;10.97;5.90;;;;;;;-143.84;71.28;44967.19;4971914;28;20558;-55
2023/07/22 09:00:36;;;;;;;5.87;5.00;;;;;;;-143.84;70.97;44971.00;4972089;28;20445;-55
2023/07/22 09:03:04;;;;;;;10.77;5.47;;;;;;;-143.84;71.34;44963.38;4971863;28;20439;-55
2023/07/22 09:05:34;;;;;;;11.00;5.90;;;;;;;-143.84;74.06;44959.56;4971929;28;20482;-55
2023/07/22 09:08:03;;;;;;;10.37;5.40;;;;;;;-143.84;73.79;44940.53;4971795;28;20464;-55
2023/07/22 09:10:33;;;;;;;6.80;5.00;;;;;;;-143.84;73.67;44953.88;4971747;28;20450;-55
2023/07/22 09:13:01;;;;;;;6.97;4.53;;;;;;;-143.84;73.71;44967.19;4972397;28;20541;-55
2023/07/22 09:15:29;;;;;;;10.17;5.60;;;;;;;-143.84;74.78;44969.09;4971922;28;20546;-55
2023/07/22 09:17:56;;;;;;;10.63;6.53;;;;;;;-143.84;74.30;44969.09;4971641;28;20512;-55
2023/07/22 09:20:23;;;;;;;9.20;4.90;;;;;;;-143.84;75.77;44982.41;4971667;28;20863;-55
2023/07/22 09:22:52;;;;;;;6.97;5.47;;;;;;;-143.84;75.34;44963.38;4971424;28;20952;-55
2023/07/22 09:25:21;;;;;;;8.57;5.17;;;;;;;-143.84;75.87;44961.47;4970552;28;20470;-55
2023/07/22 09:27:51;;;;;;;6.70;4.97;;;;;;;-143.84;75.18;44988.13;4971357;28;20446;-55
2023/07/22 09:30:26;;;;;;;6.03;5.13;;;;;;;-143.84;75.34;44953.88;4971486;28;20838;-55
2023/07/22 09:32:55;;;;;;;7.30;4.90;;;;;;;-143.84;77.02;44953.88;4971254;28;20438;-55
2023/07/22 09:35:22;;;;;;;5.97;4.87;;;;;;;-143.84;77.85;44951.97;4971513;28;20450;-55
2023/07/22 09:37:50;;;;;;;8.73;5.20;;;;;;;-143.84;74.51;44963.38;4971031;28;20489;-55
2023/07/22 09:40:19;;;;;;;11.70;4.63;;;;;;;-143.84;74.52;44969.09;4971346;28;20500;-55
2023/07/22 09:42:49;;;;;;;7.30;5.23;;;;;;;-143.84;73.51;44951.97;4971263;28;21007;-55
2023/07/22 09:45:17;;;;;;;6.10;5.33;;;;;;;-143.84;74.11;44991.94;4970854;28;20469;-55
2023/07/22 09:47:46;;;;;;;7.90;4.97;;;;;;;-143.84;76.21;44938.63;4971172;28;20962;-54
2023/07/22 09:50:15;;;;;;;10.10;5.90;;;;;;;-143.84;74.55;44993.84;4971033;28;20501;-55
2023/07/22 09:52:45;;;;;;;8.40;5.10;;;;;;;-143.84;74.07;44925.31;4970963;28;20446;-55
2023/07/22 09:55:13;;;;;;;8.00;5.40;;;;;;;-143.84;72.83;44942.44;4970950;28;20450;-55
2023/07/22 09:57:44;;;;;;;5.20;4.43;;;;;;;-143.84;73.67;44950.06;4970811;28;20485;-55
2023/07/22 10:00:15;;;;;;;6.30;5.00;;;;;;;-143.84;73.89;44982.41;4970964;28;20438;-55
2023/07/22 10:02:44;;;;;;;6.47;5.23;;;;;;;-143.84;75.40;44951.97;4971127;28;21332;-55
2023/07/22 10:05:16;;;;;;;12.67;5.50;;;;;;;-143.84;74.53;44980.53;4970989;28;20442;-55
2023/07/22 10:07:49;;;;;;;5.50;5.00;;;;;;;-143.84;76.23;44948.16;4970718;28;20826;-55
2023/07/22 10:10:18;;;;;;;13.27;5.00;;;;;;;-143.84;76.43;44948.16;4970322;28;20469;-55
2023/07/22 10:12:46;;;;;;;12.40;5.63;;;;;;;-143.84;76.68;44946.25;4970750;28;21230;-55
2023/07/22 10:15:17;;;;;;;12.70;5.33;;;;;;;-143.84;75.16;44957.66;4970539;28;20442;-55
2023/07/22 10:17:45;;;;;;;5.33;4.83;;;;;;;-143.84;75.36;44988.13;4970609;28;20525;-55
2023/07/22 10:20:14;;;;;;;7.03;5.40;;;;;;;-143.84;74.42;45005.28;4970859;28;20520;-55
2023/07/22 10:22:44;;;;;;;7.57;5.33;;;;;;;-143.84;77.69;44984.31;4970020;28;20454;-55
2023/07/22 10:25:12;;;;;;;10.40;6.07;;;;;;;-143.84;75.81;44984.31;4970424;28;20473;-55
2023/07/22 10:27:41;;;;;;;10.10;6.17;;;;;;;-143.84;75.22;44993.84;4970456;28;21029;-55
2023/07/22 10:30:09;;;;;;;9.70;5.23;;;;;;;-143.84;75.41;44982.41;4970468;28;20923;-55
2023/07/22 10:32:39;;;;;;;6.80;5.90;;;;;;;-143.84;76.12;44959.56;4970347;28;20442;-55
2023/07/22 10:35:11;;;;;;;7.63;5.63;;;;;;;-143.84;78.07;44995.75;4970357;28;20484;-55
2023/07/22 10:37:41;;;;;;;7.43;5.50;;;;;;;-143.84;75.18;44982.41;4970263;28;20551;-55
2023/07/22 10:40:19;;;;;;;5.50;5.00;;;;;;;-143.84;77.55;45005.28;4970365;28;20532;-55
2023/07/22 10:42:58;;;;;;;6.83;5.27;;;;;;;-143.84;77.74;44997.66;4970127;28;20897;-55
2023/07/22 10:45:28;;;;;;;15.20;6.00;;;;;;;-143.84;78.85;44993.84;4951007;28;20438;-55
2023/07/22 10:48:06;;;;;;;11.77;5.30;;;;;;;-143.84;78.47;45014.78;4950793;28;20453;-55
2023/07/22 10:50:46;;;;;;;8.80;5.20;;;;;;;-143.84;81.23;44978.63;4950746;28;20454;-54
2023/07/22 10:53:15;;;;;;;11.80;6.13;;;;;;;-143.84;79.14;44974.81;4970246;28;20477;-55
2023/07/22 10:56:04;;;;;;;11.53;6.00;;;;;;;-143.84;76.68;44971.00;4968007;28;20450;-55
2023/07/22 10:58:32;;;;;;;8.20;4.80;;;;;;;-143.84;76.06;44991.94;4970146;28;21008;-55
2023/07/22 11:01:27;;;;;;;6.83;4.60;;;;;;;-143.84;75.56;44978.63;4969581;28;20452;-55
2023/07/22 11:04:30;;;;;;;6.60;4.47;;;;;;;-143.84;76.59;44976.72;4969870;28;20921;-55
2023/07/22 11:06:59;;;;;;;5.93;5.33;;;;;;;-143.84;74.94;44953.88;4969977;28;20522;-55
2023/07/22 11:09:36;;;;;;;13.30;5.27;;;;;;;-143.84;76.36;44965.28;4969907;28;20449;-55
2023/07/22 11:12:05;;;;;;;6.90;5.23;;;;;;;-143.84;73.50;44982.41;4969870;28;20512;-55